Johnston, South Carolina
Current Conditions -  °F | °C
As of 1:15 PM on Monday 22 Dec 2014 (Local Time) from KAIK Reporting Station
Moderate Rain Moderate Rain  
Wind Chill: 40°   Ceiling: 300
Heat Index: 45°   Visibility: 5mi
Dew Point: 45°   Wind: 9mph
Humidity: 100%   Direction: 30°NNE
Pressure: 30.03"   Gusts: NA
Location:  33.83°N, 81.8°W
Report Text: KAIK 221815Z AUTO 03008KT 5SM RA BKN003 OVC029 07/07 A3003 RMK AO2 PNO
Loading
Personal Weather Stations






























Interactive Weather Map New forecast layout! Learn more

10-Day Weather Forecast

Advertisements
Track Severe Weather on mobile